sensor_id;sensor_type;location;lat;lon;timestamp;temperature;humidity
69626;DHT22;56847;51.984;5.088;2022-10-16T05:02:29;14.60;78.50
69626;DHT22;56847;51.984;5.088;2022-10-16T05:04:56;14.50;78.70
69626;DHT22;56847;51.984;5.088;2022-10-16T05:07:23;14.50;78.80
69626;DHT22;56847;51.984;5.088;2022-10-16T05:09:50;14.50;78.80
69626;DHT22;56847;51.984;5.088;2022-10-16T05:12:17;14.50;78.90
69626;DHT22;56847;51.984;5.088;2022-10-16T05:14:44;14.50;79.00
69626;DHT22;56847;51.984;5.088;2022-10-16T05:17:11;14.50;79.00
69626;DHT22;56847;51.984;5.088;2022-10-16T05:19:43;14.50;79.10
69626;DHT22;56847;51.984;5.088;2022-10-16T05:22:10;14.50;79.20
69626;DHT22;56847;51.984;5.088;2022-10-16T05:24:36;14.50;79.30
69626;DHT22;56847;51.984;5.088;2022-10-16T05:27:03;14.60;79.30
69626;DHT22;56847;51.984;5.088;2022-10-16T05:29:30;14.60;79.30
69626;DHT22;56847;51.984;5.088;2022-10-16T05:31:58;14.60;79.30
69626;DHT22;56847;51.984;5.088;2022-10-16T05:34:25;14.70;79.30
69626;DHT22;56847;51.984;5.088;2022-10-16T05:36:52;14.70;79.30
69626;DHT22;56847;51.984;5.088;2022-10-16T05:39:19;14.80;79.20
69626;DHT22;56847;51.984;5.088;2022-10-16T05:41:46;14.80;79.10
69626;DHT22;56847;51.984;5.088;2022-10-16T05:44:13;14.80;79.00
69626;DHT22;56847;51.984;5.088;2022-10-16T05:46:40;14.90;79.00
69626;DHT22;56847;51.984;5.088;2022-10-16T05:49:06;14.90;79.00
69626;DHT22;56847;51.984;5.088;2022-10-16T05:51:36;15.00;78.90
69626;DHT22;56847;51.984;5.088;2022-10-16T05:54:03;15.00;78.90
69626;DHT22;56847;51.984;5.088;2022-10-16T05:56:30;15.00;78.90
69626;DHT22;56847;51.984;5.088;2022-10-16T05:58:57;15.00;78.90
69626;DHT22;56847;51.984;5.088;2022-10-16T06:01:24;15.00;78.90
69626;DHT22;56847;51.984;5.088;2022-10-16T06:03:52;15.00;78.90
69626;DHT22;56847;51.984;5.088;2022-10-16T06:06:24;15.10;78.90
69626;DHT22;56847;51.984;5.088;2022-10-16T06:08:56;15.10;78.90
69626;DHT22;56847;51.984;5.088;2022-10-16T06:11:29;15.10;78.80
69626;DHT22;56847;51.984;5.088;2022-10-16T06:14:00;15.20;78.80
69626;DHT22;56847;51.984;5.088;2022-10-16T06:16:29;15.20;78.80
69626;DHT22;56847;51.984;5.088;2022-10-16T06:18:56;15.20;78.80
69626;DHT22;56847;51.984;5.088;2022-10-16T06:21:26;15.20;78.80
69626;DHT22;56847;51.984;5.088;2022-10-16T06:23:54;15.20;78.80
69626;DHT22;56847;51.984;5.088;2022-10-16T06:26:23;15.20;78.80
69626;DHT22;56847;51.984;5.088;2022-10-16T06:28:51;15.20;78.80
69626;DHT22;56847;51.984;5.088;2022-10-16T06:31:18;15.30;78.80
69626;DHT22;56847;51.984;5.088;2022-10-16T06:33:45;15.30;78.80
69626;DHT22;56847;51.984;5.088;2022-10-16T06:36:16;15.40;78.70
69626;DHT22;56847;51.984;5.088;2022-10-16T06:38:44;15.40;78.60
69626;DHT22;56847;51.984;5.088;2022-10-16T06:41:15;15.40;78.70
69626;DHT22;56847;51.984;5.088;2022-10-16T06:43:43;15.40;78.60
69626;DHT22;56847;51.984;5.088;2022-10-16T06:46:13;15.50;78.60
69626;DHT22;56847;51.984;5.088;2022-10-16T06:48:40;15.50;78.60
69626;DHT22;56847;51.984;5.088;2022-10-16T06:51:13;15.50;78.60
69626;DHT22;56847;51.984;5.088;2022-10-16T06:53:46;15.50;78.60
69626;DHT22;56847;51.984;5.088;2022-10-16T06:56:30;15.40;78.70
69626;DHT22;56847;51.984;5.088;2022-10-16T06:58:58;15.40;78.70
69626;DHT22;56847;51.984;5.088;2022-10-16T07:01:27;15.30;78.90
69626;DHT22;56847;51.984;5.088;2022-10-16T07:03:54;15.30;79.40
69626;DHT22;56847;51.984;5.088;2022-10-16T07:06:23;15.20;79.60
69626;DHT22;56847;51.984;5.088;2022-10-16T07:08:51;15.10;79.90
69626;DHT22;56847;51.984;5.088;2022-10-16T07:11:20;15.10;80.20
69626;DHT22;56847;51.984;5.088;2022-10-16T07:13:49;15.10;80.60
69626;DHT22;56847;51.984;5.088;2022-10-16T07:16:27;15.10;80.70
69626;DHT22;56847;51.984;5.088;2022-10-16T07:18:59;15.20;80.70
69626;DHT22;56847;51.984;5.088;2022-10-16T07:21:32;15.30;80.90
69626;DHT22;56847;51.984;5.088;2022-10-16T07:24:04;15.30;80.90
69626;DHT22;56847;51.984;5.088;2022-10-16T07:26:35;15.40;80.80
69626;DHT22;56847;51.984;5.088;2022-10-16T07:29:03;15.50;80.70
69626;DHT22;56847;51.984;5.088;2022-10-16T07:31:31;15.50;80.50
69626;DHT22;56847;51.984;5.088;2022-10-16T07:33:59;15.50;80.40
69626;DHT22;56847;51.984;5.088;2022-10-16T07:36:26;15.60;80.20
69626;DHT22;56847;51.984;5.088;2022-10-16T07:38:53;15.50;80.20
69626;DHT22;56847;51.984;5.088;2022-10-16T07:41:26;15.50;80.50
69626;DHT22;56847;51.984;5.088;2022-10-16T07:43:53;15.60;80.80
69626;DHT22;56847;51.984;5.088;2022-10-16T07:46:22;15.70;81.00
69626;DHT22;56847;51.984;5.088;2022-10-16T07:48:49;15.80;81.10
69626;DHT22;56847;51.984;5.088;2022-10-16T07:51:21;15.90;81.00
69626;DHT22;56847;51.984;5.088;2022-10-16T07:53:49;16.00;81.00
69626;DHT22;56847;51.984;5.088;2022-10-16T07:56:17;16.10;80.70
69626;DHT22;56847;51.984;5.088;2022-10-16T07:58:44;16.20;80.40
69626;DHT22;56847;51.984;5.088;2022-10-16T08:01:14;16.20;80.20
69626;DHT22;56847;51.984;5.088;2022-10-16T08:03:43;16.30;80.20
69626;DHT22;56847;51.984;5.088;2022-10-16T08:06:10;16.30;79.60
69626;DHT22;56847;51.984;5.088;2022-10-16T08:08:37;16.40;79.40
69626;DHT22;56847;51.984;5.088;2022-10-16T08:11:07;16.50;79.60
69626;DHT22;56847;51.984;5.088;2022-10-16T08:13:34;16.50;79.70
69626;DHT22;56847;51.984;5.088;2022-10-16T08:16:02;16.60;79.60
69626;DHT22;56847;51.984;5.088;2022-10-16T08:18:38;16.70;79.40
69626;DHT22;56847;51.984;5.088;2022-10-16T08:21:07;16.80;78.90
69626;DHT22;56847;51.984;5.088;2022-10-16T08:23:34;16.80;78.60
69626;DHT22;56847;51.984;5.088;2022-10-16T08:26:05;16.90;78.80
69626;DHT22;56847;51.984;5.088;2022-10-16T08:28:32;17.00;78.70
69626;DHT22;56847;51.984;5.088;2022-10-16T08:31:13;17.10;77.90
69626;DHT22;56847;51.984;5.088;2022-10-16T08:33:43;17.10;78.10
69626;DHT22;56847;51.984;5.088;2022-10-16T08:36:14;17.20;78.10
69626;DHT22;56847;51.984;5.088;2022-10-16T08:38:41;17.30;78.10
69626;DHT22;56847;51.984;5.088;2022-10-16T08:41:33;17.40;77.60
69626;DHT22;56847;51.984;5.088;2022-10-16T08:49:34;17.60;76.90
69626;DHT22;56847;51.984;5.088;2022-10-16T08:52:02;17.70;76.50
69626;DHT22;56847;51.984;5.088;2022-10-16T08:54:38;17.80;76.60
69626;DHT22;56847;51.984;5.088;2022-10-16T08:57:12;17.90;75.80
69626;DHT22;56847;51.984;5.088;2022-10-16T08:59:47;17.90;75.10
69626;DHT22;56847;51.984;5.088;2022-10-16T09:13:40;18.20;74.10
69626;DHT22;56847;51.984;5.088;2022-10-16T09:16:30;18.30;73.80
69626;DHT22;56847;51.984;5.088;2022-10-16T09:19:29;18.40;74.50
69626;DHT22;56847;51.984;5.088;2022-10-16T09:22:00;18.50;73.20
69626;DHT22;56847;51.984;5.088;2022-10-16T09:24:30;18.60;73.70
69626;DHT22;56847;51.984;5.088;2022-10-16T09:26:57;18.80;74.00
69626;DHT22;56847;51.984;5.088;2022-10-16T09:29:27;18.90;72.20
69626;DHT22;56847;51.984;5.088;2022-10-16T09:31:55;18.90;71.10
69626;DHT22;56847;51.984;5.088;2022-10-16T09:34:31;18.90;71.40
69626;DHT22;56847;51.984;5.088;2022-10-16T09:37:01;19.00;72.00
69626;DHT22;56847;51.984;5.088;2022-10-16T09:39:30;19.10;72.30
69626;DHT22;56847;51.984;5.088;2022-10-16T09:41:57;19.30;71.80
69626;DHT22;56847;51.984;5.088;2022-10-16T09:44:28;19.40;70.50
69626;DHT22;56847;51.984;5.088;2022-10-16T09:47:04;19.40;70.40
69626;DHT22;56847;51.984;5.088;2022-10-16T09:49:31;19.50;70.60
69626;DHT22;56847;51.984;5.088;2022-10-16T09:52:11;19.70;70.40
69626;DHT22;56847;51.984;5.088;2022-10-16T09:54:49;19.70;69.80
69626;DHT22;56847;51.984;5.088;2022-10-16T09:57:16;19.70;70.00
69626;DHT22;56847;51.984;5.088;2022-10-16T09:59:54;19.80;69.10
69626;DHT22;56847;51.984;5.088;2022-10-16T10:02:35;19.90;69.10
69626;DHT22;56847;51.984;5.088;2022-10-16T10:05:06;19.90;68.80
69626;DHT22;56847;51.984;5.088;2022-10-16T10:07:44;19.90;68.50
69626;DHT22;56847;51.984;5.088;2022-10-16T10:10:41;19.70;68.60
69626;DHT22;56847;51.984;5.088;2022-10-16T10:13:21;19.70;67.80
69626;DHT22;56847;51.984;5.088;2022-10-16T10:15:50;19.60;68.80
69626;DHT22;56847;51.984;5.088;2022-10-16T10:18:20;19.60;68.70
69626;DHT22;56847;51.984;5.088;2022-10-16T10:21:02;19.70;69.50
69626;DHT22;56847;51.984;5.088;2022-10-16T10:23:30;19.80;67.70
69626;DHT22;56847;51.984;5.088;2022-10-16T10:31:47;19.90;65.30
69626;DHT22;56847;51.984;5.088;2022-10-16T10:34:39;19.70;65.10
69626;DHT22;56847;51.984;5.088;2022-10-16T10:40:17;20.00;66.70
69626;DHT22;56847;51.984;5.088;2022-10-16T10:42:53;20.20;66.60
69626;DHT22;56847;51.984;5.088;2022-10-16T10:45:46;20.40;64.00
69626;DHT22;56847;51.984;5.088;2022-10-16T10:51:01;20.60;63.80
69626;DHT22;56847;51.984;5.088;2022-10-16T10:53:36;20.70;62.70
69626;DHT22;56847;51.984;5.088;2022-10-16T11:01:45;20.80;62.60
69626;DHT22;56847;51.984;5.088;2022-10-16T11:16:04;20.90;60.60
69626;DHT22;56847;51.984;5.088;2022-10-16T11:18:52;21.00;60.10
69626;DHT22;56847;51.984;5.088;2022-10-16T11:21:23;21.10;60.00
69626;DHT22;56847;51.984;5.088;2022-10-16T11:24:24;21.20;59.40
69626;DHT22;56847;51.984;5.088;2022-10-16T11:27:00;21.30;59.20
69626;DHT22;56847;51.984;5.088;2022-10-16T11:29:31;21.30;57.80
69626;DHT22;56847;51.984;5.088;2022-10-16T11:32:06;21.30;58.60
69626;DHT22;56847;51.984;5.088;2022-10-16T11:34:44;21.30;57.40
69626;DHT22;56847;51.984;5.088;2022-10-16T11:37:16;21.30;57.90
69626;DHT22;56847;51.984;5.088;2022-10-16T11:39:45;21.30;57.70
69626;DHT22;56847;51.984;5.088;2022-10-16T11:42:27;21.20;57.10
69626;DHT22;56847;51.984;5.088;2022-10-16T11:45:22;21.10;57.30
69626;DHT22;56847;51.984;5.088;2022-10-16T11:48:14;21.20;58.00
69626;DHT22;56847;51.984;5.088;2022-10-16T11:50:54;21.30;57.60
69626;DHT22;56847;51.984;5.088;2022-10-16T11:53:41;21.40;56.50
69626;DHT22;56847;51.984;5.088;2022-10-16T11:56:20;21.30;56.40
69626;DHT22;56847;51.984;5.088;2022-10-16T11:58:57;21.40;56.30
69626;DHT22;56847;51.984;5.088;2022-10-16T12:01:46;21.40;56.00
69626;DHT22;56847;51.984;5.088;2022-10-16T12:07:12;21.60;56.30
69626;DHT22;56847;51.984;5.088;2022-10-16T12:09:41;21.60;54.90
69626;DHT22;56847;51.984;5.088;2022-10-16T12:12:25;21.50;55.10
69626;DHT22;56847;51.984;5.088;2022-10-16T12:15:27;21.40;54.70
69626;DHT22;56847;51.984;5.088;2022-10-16T12:18:22;21.30;54.50
69626;DHT22;56847;51.984;5.088;2022-10-16T12:20:59;21.10;54.90
69626;DHT22;56847;51.984;5.088;2022-10-16T12:23:33;20.90;55.20
69626;DHT22;56847;51.984;5.088;2022-10-16T12:26:04;20.80;55.70
69626;DHT22;56847;51.984;5.088;2022-10-16T12:28:33;20.70;56.30
69626;DHT22;56847;51.984;5.088;2022-10-16T12:31:02;20.80;56.00
69626;DHT22;56847;51.984;5.088;2022-10-16T12:33:34;20.90;55.90
69626;DHT22;56847;51.984;5.088;2022-10-16T12:36:05;21.00;56.00
69626;DHT22;56847;51.984;5.088;2022-10-16T12:38:45;21.10;55.60
69626;DHT22;56847;51.984;5.088;2022-10-16T12:41:28;21.10;55.00
69626;DHT22;56847;51.984;5.088;2022-10-16T12:43:55;21.10;54.20
69626;DHT22;56847;51.984;5.088;2022-10-16T12:49:29;21.10;54.40
69626;DHT22;56847;51.984;5.088;2022-10-16T12:51:56;21.10;54.70
69626;DHT22;56847;51.984;5.088;2022-10-16T12:54:37;21.20;55.40
69626;DHT22;56847;51.984;5.088;2022-10-16T12:57:27;21.30;55.40
69626;DHT22;56847;51.984;5.088;2022-10-16T13:11:20;21.50;54.60
69626;DHT22;56847;51.984;5.088;2022-10-16T13:14:19;21.50;55.10
69626;DHT22;56847;51.984;5.088;2022-10-16T13:27:34;21.60;54.50
69626;DHT22;56847;51.984;5.088;2022-10-16T13:30:17;21.60;54.40
69626;DHT22;56847;51.984;5.088;2022-10-16T13:32:50;21.70;54.30
69626;DHT22;56847;51.984;5.088;2022-10-16T13:35:24;21.70;54.00
69626;DHT22;56847;51.984;5.088;2022-10-16T13:38:22;21.70;54.30
69626;DHT22;56847;51.984;5.088;2022-10-16T13:41:33;21.70;54.40
69626;DHT22;56847;51.984;5.088;2022-10-16T13:43:45;21.60;54.70
69626;DHT22;56847;51.984;5.088;2022-10-16T13:48:41;21.70;54.60
69626;DHT22;56847;51.984;5.088;2022-10-16T13:51:16;21.70;54.60
69626;DHT22;56847;51.984;5.088;2022-10-16T13:53:45;21.70;54.60
69626;DHT22;56847;51.984;5.088;2022-10-16T13:56:19;21.80;54.50
69626;DHT22;56847;51.984;5.088;2022-10-16T13:59:06;21.80;54.40
69626;DHT22;56847;51.984;5.088;2022-10-16T14:01:41;21.70;54.10
69626;DHT22;56847;51.984;5.088;2022-10-16T14:04:12;21.60;54.40
69626;DHT22;56847;51.984;5.088;2022-10-16T14:06:42;21.60;54.80
69626;DHT22;56847;51.984;5.088;2022-10-16T14:09:26;21.70;55.20
69626;DHT22;56847;51.984;5.088;2022-10-16T14:12:06;21.70;55.20
69626;DHT22;56847;51.984;5.088;2022-10-16T14:14:41;21.70;55.30
69626;DHT22;56847;51.984;5.088;2022-10-16T14:17:42;21.70;55.40
69626;DHT22;56847;51.984;5.088;2022-10-16T14:20:14;21.70;55.30
69626;DHT22;56847;51.984;5.088;2022-10-16T14:22:49;21.80;55.60
69626;DHT22;56847;51.984;5.088;2022-10-16T14:25:27;21.80;55.60
69626;DHT22;56847;51.984;5.088;2022-10-16T14:28:14;21.70;55.20
69626;DHT22;56847;51.984;5.088;2022-10-16T14:30:51;21.60;55.30
69626;DHT22;56847;51.984;5.088;2022-10-16T14:33:24;21.50;55.70
69626;DHT22;56847;51.984;5.088;2022-10-16T14:38:31;21.50;56.50
69626;DHT22;56847;51.984;5.088;2022-10-16T14:40:59;21.50;56.80
69626;DHT22;56847;51.984;5.088;2022-10-16T14:43:38;21.60;57.10
69626;DHT22;56847;51.984;5.088;2022-10-16T14:46:18;21.70;57.20
69626;DHT22;56847;51.984;5.088;2022-10-16T14:48:51;21.70;56.60
69626;DHT22;56847;51.984;5.088;2022-10-16T14:51:20;21.60;56.60
69626;DHT22;56847;51.984;5.088;2022-10-16T14:53:47;21.60;56.80
69626;DHT22;56847;51.984;5.088;2022-10-16T14:56:23;21.70;56.80
69626;DHT22;56847;51.984;5.088;2022-10-16T14:58:53;21.70;56.80
69626;DHT22;56847;51.984;5.088;2022-10-16T15:01:22;21.70;56.90
69626;DHT22;56847;51.984;5.088;2022-10-16T15:03:49;21.60;57.10
69626;DHT22;56847;51.984;5.088;2022-10-16T15:06:19;21.60;57.10
69626;DHT22;56847;51.984;5.088;2022-10-16T15:08:45;21.60;57.30
69626;DHT22;56847;51.984;5.088;2022-10-16T15:11:18;21.60;57.50
69626;DHT22;56847;51.984;5.088;2022-10-16T15:13:48;21.60;57.40
69626;DHT22;56847;51.984;5.088;2022-10-16T15:16:16;21.60;57.30
69626;DHT22;56847;51.984;5.088;2022-10-16T15:18:43;21.60;57.50
69626;DHT22;56847;51.984;5.088;2022-10-16T15:21:24;21.60;57.40
69626;DHT22;56847;51.984;5.088;2022-10-16T15:23:52;21.60;57.40
69626;DHT22;56847;51.984;5.088;2022-10-16T15:26:22;21.50;57.70
69626;DHT22;56847;51.984;5.088;2022-10-16T15:28:49;21.40;58.00
69626;DHT22;56847;51.984;5.088;2022-10-16T15:31:16;21.40;58.00
69626;DHT22;56847;51.984;5.088;2022-10-16T15:33:44;21.30;58.40
69626;DHT22;56847;51.984;5.088;2022-10-16T15:36:14;21.20;58.80
69626;DHT22;56847;51.984;5.088;2022-10-16T15:38:51;21.20;59.00
69626;DHT22;56847;51.984;5.088;2022-10-16T15:41:18;21.10;59.00
69626;DHT22;56847;51.984;5.088;2022-10-16T15:43:49;21.10;59.40
69626;DHT22;56847;51.984;5.088;2022-10-16T15:46:23;21.00;59.60
69626;DHT22;56847;51.984;5.088;2022-10-16T15:48:51;21.00;59.70
69626;DHT22;56847;51.984;5.088;2022-10-16T15:51:25;20.90;59.90
69626;DHT22;56847;51.984;5.088;2022-10-16T15:53:56;20.80;60.20
69626;DHT22;56847;51.984;5.088;2022-10-16T15:56:23;20.80;60.50
69626;DHT22;56847;51.984;5.088;2022-10-16T15:58:58;20.70;60.70
69626;DHT22;56847;51.984;5.088;2022-10-16T16:01:26;20.70;60.90
69626;DHT22;56847;51.984;5.088;2022-10-16T16:03:54;20.60;61.20
69626;DHT22;56847;51.984;5.088;2022-10-16T16:06:25;20.60;61.30
69626;DHT22;56847;51.984;5.088;2022-10-16T16:08:53;20.50;61.50
69626;DHT22;56847;51.984;5.088;2022-10-16T16:11:20;20.40;61.70
69626;DHT22;56847;51.984;5.088;2022-10-16T16:13:49;20.40;61.70
69626;DHT22;56847;51.984;5.088;2022-10-16T16:16:17;20.40;61.70
69626;DHT22;56847;51.984;5.088;2022-10-16T16:18:44;20.30;61.90
69626;DHT22;56847;51.984;5.088;2022-10-16T16:21:14;20.30;62.20
69626;DHT22;56847;51.984;5.088;2022-10-16T16:23:41;20.20;62.40
69626;DHT22;56847;51.984;5.088;2022-10-16T16:26:14;20.20;62.20
69626;DHT22;56847;51.984;5.088;2022-10-16T16:28:44;20.10;62.20
69626;DHT22;56847;51.984;5.088;2022-10-16T16:31:11;20.00;62.30
69626;DHT22;56847;51.984;5.088;2022-10-16T16:33:38;19.90;62.30
69626;DHT22;56847;51.984;5.088;2022-10-16T16:36:06;19.90;62.40
69626;DHT22;56847;51.984;5.088;2022-10-16T16:38:40;19.80;62.40
69626;DHT22;56847;51.984;5.088;2022-10-16T16:41:13;19.80;62.50
69626;DHT22;56847;51.984;5.088;2022-10-16T16:43:45;19.70;62.70
69626;DHT22;56847;51.984;5.088;2022-10-16T16:46:14;19.60;62.60
69626;DHT22;56847;51.984;5.088;2022-10-16T16:48:45;19.60;62.80
69626;DHT22;56847;51.984;5.088;2022-10-16T16:51:15;19.60;62.90
69626;DHT22;56847;51.984;5.088;2022-10-16T16:53:45;19.60;63.00
69626;DHT22;56847;51.984;5.088;2022-10-16T16:56:14;19.60;63.10
69626;DHT22;56847;51.984;5.088;2022-10-16T16:58:46;19.50;63.10
69626;DHT22;56847;51.984;5.088;2022-10-16T17:01:35;19.50;63.20
69626;DHT22;56847;51.984;5.088;2022-10-16T17:04:08;19.50;63.30
69626;DHT22;56847;51.984;5.088;2022-10-16T17:06:37;19.50;63.30
69626;DHT22;56847;51.984;5.088;2022-10-16T17:09:05;19.40;63.40
69626;DHT22;56847;51.984;5.088;2022-10-16T17:11:48;19.30;63.50
69626;DHT22;56847;51.984;5.088;2022-10-16T17:14:35;19.30;63.70
69626;DHT22;56847;51.984;5.088;2022-10-16T17:17:20;19.20;63.80
69626;DHT22;56847;51.984;5.088;2022-10-16T17:19:56;19.20;63.80
69626;DHT22;56847;51.984;5.088;2022-10-16T17:22:23;19.10;64.00
69626;DHT22;56847;51.984;5.088;2022-10-16T17:24:54;19.10;64.00
69626;DHT22;56847;51.984;5.088;2022-10-16T17:28:26;19.10;64.00
69626;DHT22;56847;51.984;5.088;2022-10-16T17:31:09;19.10;64.10
69626;DHT22;56847;51.984;5.088;2022-10-16T17:33:48;19.00;64.30
69626;DHT22;56847;51.984;5.088;2022-10-16T17:36:25;19.00;64.40
69626;DHT22;56847;51.984;5.088;2022-10-16T17:39:07;19.00;64.40
69626;DHT22;56847;51.984;5.088;2022-10-16T17:44:34;18.90;64.40
69626;DHT22;56847;51.984;5.088;2022-10-16T17:47:04;18.90;64.50
69626;DHT22;56847;51.984;5.088;2022-10-16T17:49:35;18.90;64.60
69626;DHT22;56847;51.984;5.088;2022-10-16T17:52:05;18.80;64.70
69626;DHT22;56847;51.984;5.088;2022-10-16T17:54:33;18.80;64.80
69626;DHT22;56847;51.984;5.088;2022-10-16T17:57:01;18.80;64.80
69626;DHT22;56847;51.984;5.088;2022-10-16T17:59:28;18.80;64.80
69626;DHT22;56847;51.984;5.088;2022-10-16T18:01:55;18.80;65.00
69626;DHT22;56847;51.984;5.088;2022-10-16T18:04:25;18.80;65.00
69626;DHT22;56847;51.984;5.088;2022-10-16T18:06:53;18.80;65.00
69626;DHT22;56847;51.984;5.088;2022-10-16T18:09:25;18.80;65.10
69626;DHT22;56847;51.984;5.088;2022-10-16T18:12:19;18.80;65.10
69626;DHT22;56847;51.984;5.088;2022-10-16T18:14:47;18.80;65.10
69626;DHT22;56847;51.984;5.088;2022-10-16T18:17:23;18.80;65.20
69626;DHT22;56847;51.984;5.088;2022-10-16T18:19:50;18.80;65.30
69626;DHT22;56847;51.984;5.088;2022-10-16T18:22:17;18.70;65.30
69626;DHT22;56847;51.984;5.088;2022-10-16T18:24:44;18.70;65.30
69626;DHT22;56847;51.984;5.088;2022-10-16T18:27:12;18.70;65.40
69626;DHT22;56847;51.984;5.088;2022-10-16T18:29:39;18.70;65.50
69626;DHT22;56847;51.984;5.088;2022-10-16T18:32:10;18.70;65.60
69626;DHT22;56847;51.984;5.088;2022-10-16T18:34:38;18.70;65.60
69626;DHT22;56847;51.984;5.088;2022-10-16T18:37:07;18.70;65.70
69626;DHT22;56847;51.984;5.088;2022-10-16T18:39:38;18.70;65.80
69626;DHT22;56847;51.984;5.088;2022-10-16T18:42:08;18.70;65.80
69626;DHT22;56847;51.984;5.088;2022-10-16T18:44:37;18.70;65.90
69626;DHT22;56847;51.984;5.088;2022-10-16T18:47:05;18.70;66.00
69626;DHT22;56847;51.984;5.088;2022-10-16T18:49:32;18.60;66.10
69626;DHT22;56847;51.984;5.088;2022-10-16T18:52:01;18.60;66.20
69626;DHT22;56847;51.984;5.088;2022-10-16T18:54:30;18.60;66.30
69626;DHT22;56847;51.984;5.088;2022-10-16T18:56:57;18.60;66.40
69626;DHT22;56847;51.984;5.088;2022-10-16T18:59:25;18.60;66.50
69626;DHT22;56847;51.984;5.088;2022-10-16T19:01:56;18.60;66.70
69626;DHT22;56847;51.984;5.088;2022-10-16T19:04:24;18.60;66.70
69626;DHT22;56847;51.984;5.088;2022-10-16T19:06:52;18.50;66.80
69626;DHT22;56847;51.984;5.088;2022-10-16T19:09:22;18.50;67.00
69626;DHT22;56847;51.984;5.088;2022-10-16T19:11:49;18.50;67.10
69626;DHT22;56847;51.984;5.088;2022-10-16T19:14:18;18.50;67.10
69626;DHT22;56847;51.984;5.088;2022-10-16T19:16:48;18.50;67.20
69626;DHT22;56847;51.984;5.088;2022-10-16T19:19:19;18.40;67.30
69626;DHT22;56847;51.984;5.088;2022-10-16T19:22:05;18.40;67.50
69626;DHT22;56847;51.984;5.088;2022-10-16T19:24:57;18.40;67.60
69626;DHT22;56847;51.984;5.088;2022-10-16T19:27:29;18.30;67.70
69626;DHT22;56847;51.984;5.088;2022-10-16T19:30:07;18.30;67.80
69626;DHT22;56847;51.984;5.088;2022-10-16T19:32:35;18.30;67.80
69626;DHT22;56847;51.984;5.088;2022-10-16T19:35:11;18.30;68.00
69626;DHT22;56847;51.984;5.088;2022-10-16T19:37:38;18.30;68.10
69626;DHT22;56847;51.984;5.088;2022-10-16T19:40:15;18.30;68.20
69626;DHT22;56847;51.984;5.088;2022-10-16T19:42:48;18.30;68.30
69626;DHT22;56847;51.984;5.088;2022-10-16T19:45:23;18.30;68.40
69626;DHT22;56847;51.984;5.088;2022-10-16T19:47:51;18.30;68.60
69626;DHT22;56847;51.984;5.088;2022-10-16T19:50:23;18.30;68.70
69626;DHT22;56847;51.984;5.088;2022-10-16T19:52:59;18.30;68.80
69626;DHT22;56847;51.984;5.088;2022-10-16T19:55:38;18.30;68.90
69626;DHT22;56847;51.984;5.088;2022-10-16T19:58:06;18.30;69.10
69626;DHT22;56847;51.984;5.088;2022-10-16T20:00:40;18.20;69.30
69626;DHT22;56847;51.984;5.088;2022-10-16T20:03:09;18.20;69.60
69626;DHT22;56847;51.984;5.088;2022-10-16T20:05:48;18.10;69.70
69626;DHT22;56847;51.984;5.088;2022-10-16T20:08:49;18.10;69.90
69626;DHT22;56847;51.984;5.088;2022-10-16T20:11:30;18.10;70.10
69626;DHT22;56847;51.984;5.088;2022-10-16T20:13:58;18.00;70.30
69626;DHT22;56847;51.984;5.088;2022-10-16T20:16:27;18.00;70.50
69626;DHT22;56847;51.984;5.088;2022-10-16T20:18:55;18.00;70.60
69626;DHT22;56847;51.984;5.088;2022-10-16T20:21:25;18.00;70.80
69626;DHT22;56847;51.984;5.088;2022-10-16T20:23:58;17.90;70.90
69626;DHT22;56847;51.984;5.088;2022-10-16T20:26:28;17.90;71.10
69626;DHT22;56847;51.984;5.088;2022-10-16T20:28:59;17.90;71.20
69626;DHT22;56847;51.984;5.088;2022-10-16T20:31:29;17.90;71.40
69626;DHT22;56847;51.984;5.088;2022-10-16T20:34:04;17.90;71.50
69626;DHT22;56847;51.984;5.088;2022-10-16T20:36:32;17.90;71.70
69626;DHT22;56847;51.984;5.088;2022-10-16T20:39:04;17.90;71.60
69626;DHT22;56847;51.984;5.088;2022-10-16T20:41:34;17.90;71.90
69626;DHT22;56847;51.984;5.088;2022-10-16T20:44:06;17.90;71.90
69626;DHT22;56847;51.984;5.088;2022-10-16T20:46:33;17.90;71.90
69626;DHT22;56847;51.984;5.088;2022-10-16T20:49:02;17.90;71.80
69626;DHT22;56847;51.984;5.088;2022-10-16T20:51:47;17.90;71.90
69626;DHT22;56847;51.984;5.088;2022-10-16T20:54:16;17.90;71.90
69626;DHT22;56847;51.984;5.088;2022-10-16T20:56:43;18.00;71.80
69626;DHT22;56847;51.984;5.088;2022-10-16T20:59:10;18.00;71.80
